sensor_id;sensor_type;location;lat;lon;timestamp;pressure;altitude;pressure_sealevel;temperature;humidity
79538;BME280;68989;52.032;5.152;2023-08-07T00:01:28;101418.63;;;20.55;55.95
79538;BME280;68989;52.032;5.152;2023-08-07T00:03:55;101424.21;;;20.55;55.87
79538;BME280;68989;52.032;5.152;2023-08-07T00:06:22;101420.54;;;20.55;55.74
79538;BME280;68989;52.032;5.152;2023-08-07T00:08:49;101420.09;;;20.55;55.74
79538;BME280;68989;52.032;5.152;2023-08-07T00:11:15;101418.01;;;20.55;55.73
79538;BME280;68989;52.032;5.152;2023-08-07T00:13:42;101419.34;;;20.56;55.59
79538;BME280;68989;52.032;5.152;2023-08-07T00:16:09;101422.93;;;20.54;55.60
79538;BME280;68989;52.032;5.152;2023-08-07T00:18:36;101418.79;;;20.53;55.67
79538;BME280;68989;52.032;5.152;2023-08-07T00:21:03;101419.35;;;20.52;55.60
79538;BME280;68989;52.032;5.152;2023-08-07T00:23:29;101423.67;;;20.52;55.56
79538;BME280;68989;52.032;5.152;2023-08-07T00:25:56;101428.29;;;20.53;55.50
79538;BME280;68989;52.032;5.152;2023-08-07T00:28:23;101427.23;;;20.51;55.42
79538;BME280;68989;52.032;5.152;2023-08-07T00:30:50;101424.86;;;20.50;55.42
79538;BME280;68989;52.032;5.152;2023-08-07T00:33:17;101427.36;;;20.49;55.39
79538;BME280;68989;52.032;5.152;2023-08-07T00:35:45;101426.49;;;20.49;55.27
79538;BME280;68989;52.032;5.152;2023-08-07T00:38:12;101428.90;;;20.48;55.25
79538;BME280;68989;52.032;5.152;2023-08-07T00:40:39;101434.09;;;20.46;55.07
79538;BME280;68989;52.032;5.152;2023-08-07T00:43:07;101432.86;;;20.45;55.22
79538;BME280;68989;52.032;5.152;2023-08-07T00:45:38;101438.80;;;20.45;55.13
79538;BME280;68989;52.032;5.152;2023-08-07T00:48:07;101447.29;;;20.45;54.97
79538;BME280;68989;52.032;5.152;2023-08-07T00:50:36;101453.68;;;20.41;54.83
79538;BME280;68989;52.032;5.152;2023-08-07T00:53:04;101448.55;;;20.38;54.87
79538;BME280;68989;52.032;5.152;2023-08-07T00:55:31;101444.64;;;20.37;55.00
79538;BME280;68989;52.032;5.152;2023-08-07T00:57:59;101440.66;;;20.37;55.07
79538;BME280;68989;52.032;5.152;2023-08-07T01:03:17;101438.09;;;20.39;54.85
79538;BME280;68989;52.032;5.152;2023-08-07T01:05:44;101431.83;;;20.39;54.84
79538;BME280;68989;52.032;5.152;2023-08-07T01:08:11;101431.01;;;20.39;54.88
79538;BME280;68989;52.032;5.152;2023-08-07T01:11:06;101432.34;;;20.39;54.99
79538;BME280;68989;52.032;5.152;2023-08-07T01:13:40;101433.86;;;20.40;54.99
79538;BME280;68989;52.032;5.152;2023-08-07T01:16:16;101437.86;;;20.41;54.94
79538;BME280;68989;52.032;5.152;2023-08-07T01:18:46;101436.04;;;20.41;54.97
79538;BME280;68989;52.032;5.152;2023-08-07T01:21:17;101437.72;;;20.40;54.93
79538;BME280;68989;52.032;5.152;2023-08-07T01:23:46;101435.59;;;20.37;54.52
79538;BME280;68989;52.032;5.152;2023-08-07T01:26:13;101436.46;;;20.36;55.03
79538;BME280;68989;52.032;5.152;2023-08-07T01:28:47;101442.84;;;20.36;55.01
79538;BME280;68989;52.032;5.152;2023-08-07T01:31:18;101445.40;;;20.35;55.06
79538;BME280;68989;52.032;5.152;2023-08-07T01:33:51;101451.32;;;20.34;55.15
79538;BME280;68989;52.032;5.152;2023-08-07T01:36:24;101465.44;;;20.32;55.24
79538;BME280;68989;52.032;5.152;2023-08-07T01:38:52;101462.69;;;20.29;55.21
79538;BME280;68989;52.032;5.152;2023-08-07T01:41:21;101463.81;;;20.29;55.52
79538;BME280;68989;52.032;5.152;2023-08-07T01:43:49;101460.12;;;20.29;55.68
79538;BME280;68989;52.032;5.152;2023-08-07T01:46:18;101460.72;;;20.29;55.61
79538;BME280;68989;52.032;5.152;2023-08-07T01:48:45;101451.21;;;20.28;55.60
79538;BME280;68989;52.032;5.152;2023-08-07T01:51:12;101451.19;;;20.29;55.75
79538;BME280;68989;52.032;5.152;2023-08-07T01:53:38;101460.31;;;20.30;55.74
79538;BME280;68989;52.032;5.152;2023-08-07T01:56:05;101455.88;;;20.31;55.60
79538;BME280;68989;52.032;5.152;2023-08-07T01:58:32;101455.62;;;20.30;55.73
79538;BME280;68989;52.032;5.152;2023-08-07T02:00:59;101460.55;;;20.28;55.75
79538;BME280;68989;52.032;5.152;2023-08-07T02:03:25;101461.91;;;20.29;55.68
79538;BME280;68989;52.032;5.152;2023-08-07T02:05:52;101461.36;;;20.29;55.61
79538;BME280;68989;52.032;5.152;2023-08-07T02:08:19;101460.42;;;20.30;55.59
79538;BME280;68989;52.032;5.152;2023-08-07T02:10:46;101462.08;;;20.31;55.59
79538;BME280;68989;52.032;5.152;2023-08-07T02:13:13;101456.95;;;20.30;55.53
79538;BME280;68989;52.032;5.152;2023-08-07T02:15:39;101457.82;;;20.31;55.50
79538;BME280;68989;52.032;5.152;2023-08-07T02:18:07;101455.64;;;20.31;55.50
79538;BME280;68989;52.032;5.152;2023-08-07T02:20:34;101455.32;;;20.31;55.43
79538;BME280;68989;52.032;5.152;2023-08-07T02:23:01;101461.47;;;20.30;55.44
79538;BME280;68989;52.032;5.152;2023-08-07T02:25:27;101458.43;;;20.31;55.34
79538;BME280;68989;52.032;5.152;2023-08-07T02:27:54;101469.15;;;20.31;55.39
79538;BME280;68989;52.032;5.152;2023-08-07T02:30:21;101457.45;;;20.30;55.40
79538;BME280;68989;52.032;5.152;2023-08-07T02:32:48;101459.79;;;20.30;55.38
79538;BME280;68989;52.032;5.152;2023-08-07T02:35:15;101464.95;;;20.31;55.35
79538;BME280;68989;52.032;5.152;2023-08-07T02:37:42;101465.85;;;20.31;55.32
79538;BME280;68989;52.032;5.152;2023-08-07T02:40:10;101457.14;;;20.30;55.40
79538;BME280;68989;52.032;5.152;2023-08-07T02:42:37;101462.22;;;20.32;55.32
79538;BME280;68989;52.032;5.152;2023-08-07T02:45:05;101461.25;;;20.32;55.32
79538;BME280;68989;52.032;5.152;2023-08-07T02:47:33;101461.73;;;20.33;55.31
79538;BME280;68989;52.032;5.152;2023-08-07T02:50:00;101464.76;;;20.33;55.23
79538;BME280;68989;52.032;5.152;2023-08-07T02:52:27;101460.75;;;20.35;55.00
79538;BME280;68989;52.032;5.152;2023-08-07T02:54:54;101458.97;;;20.34;55.03
79538;BME280;68989;52.032;5.152;2023-08-07T02:57:21;101459.71;;;20.34;55.15
79538;BME280;68989;52.032;5.152;2023-08-07T02:59:48;101458.41;;;20.34;55.05
79538;BME280;68989;52.032;5.152;2023-08-07T03:02:15;101460.00;;;20.34;55.03
79538;BME280;68989;52.032;5.152;2023-08-07T03:04:42;101463.27;;;20.34;55.09
79538;BME280;68989;52.032;5.152;2023-08-07T03:07:09;101456.81;;;20.34;55.10
79538;BME280;68989;52.032;5.152;2023-08-07T03:09:36;101456.14;;;20.33;55.06
79538;BME280;68989;52.032;5.152;2023-08-07T03:12:04;101452.98;;;20.33;55.09
79538;BME280;68989;52.032;5.152;2023-08-07T03:14:32;101460.56;;;20.33;55.16
79538;BME280;68989;52.032;5.152;2023-08-07T03:16:59;101462.83;;;20.31;55.11
79538;BME280;68989;52.032;5.152;2023-08-07T03:19:26;101464.67;;;20.31;55.27
79538;BME280;68989;52.032;5.152;2023-08-07T03:21:53;101462.59;;;20.32;55.15
79538;BME280;68989;52.032;5.152;2023-08-07T03:24:19;101472.37;;;20.32;55.26
79538;BME280;68989;52.032;5.152;2023-08-07T03:26:46;101467.91;;;20.33;55.25
79538;BME280;68989;52.032;5.152;2023-08-07T03:29:14;101466.55;;;20.31;55.29
79538;BME280;68989;52.032;5.152;2023-08-07T03:31:40;101469.53;;;20.32;55.25
79538;BME280;68989;52.032;5.152;2023-08-07T03:34:07;101466.28;;;20.32;55.29
79538;BME280;68989;52.032;5.152;2023-08-07T03:36:34;101469.10;;;20.32;55.36
79538;BME280;68989;52.032;5.152;2023-08-07T03:39:01;101471.04;;;20.31;55.40
79538;BME280;68989;52.032;5.152;2023-08-07T03:41:28;101467.82;;;20.31;55.34
79538;BME280;68989;52.032;5.152;2023-08-07T03:43:54;101468.99;;;20.31;55.45
79538;BME280;68989;52.032;5.152;2023-08-07T03:46:22;101472.41;;;20.31;55.57
79538;BME280;68989;52.032;5.152;2023-08-07T03:48:49;101472.99;;;20.31;55.50
79538;BME280;68989;52.032;5.152;2023-08-07T03:51:16;101471.11;;;20.31;55.44
79538;BME280;68989;52.032;5.152;2023-08-07T03:53:43;101468.74;;;20.31;55.55
79538;BME280;68989;52.032;5.152;2023-08-07T03:56:09;101473.28;;;20.32;55.53
79538;BME280;68989;52.032;5.152;2023-08-07T03:58:36;101467.66;;;20.33;55.50
79538;BME280;68989;52.032;5.152;2023-08-07T04:01:03;101465.03;;;20.32;55.50
79538;BME280;68989;52.032;5.152;2023-08-07T04:03:30;101466.84;;;20.33;55.51
79538;BME280;68989;52.032;5.152;2023-08-07T04:05:57;101468.32;;;20.32;55.57
79538;BME280;68989;52.032;5.152;2023-08-07T04:08:23;101469.50;;;20.33;55.49
79538;BME280;68989;52.032;5.152;2023-08-07T04:10:58;101474.73;;;20.34;55.56
79538;BME280;68989;52.032;5.152;2023-08-07T04:13:26;101479.72;;;20.34;55.44
79538;BME280;68989;52.032;5.152;2023-08-07T04:15:53;101475.83;;;20.34;55.54
79538;BME280;68989;52.032;5.152;2023-08-07T04:18:20;101480.55;;;20.34;55.57
79538;BME280;68989;52.032;5.152;2023-08-07T04:20:49;101482.41;;;20.34;55.69
79538;BME280;68989;52.032;5.152;2023-08-07T04:23:16;101479.70;;;20.34;55.77
79538;BME280;68989;52.032;5.152;2023-08-07T04:25:43;101481.15;;;20.34;55.73
79538;BME280;68989;52.032;5.152;2023-08-07T04:28:10;101479.97;;;20.34;55.74
79538;BME280;68989;52.032;5.152;2023-08-07T04:30:37;101483.17;;;20.36;55.76
79538;BME280;68989;52.032;5.152;2023-08-07T04:33:03;101479.38;;;20.35;55.78
79538;BME280;68989;52.032;5.152;2023-08-07T04:35:30;101478.54;;;20.35;55.81
79538;BME280;68989;52.032;5.152;2023-08-07T04:37:57;101479.13;;;20.35;55.89
79538;BME280;68989;52.032;5.152;2023-08-07T04:40:24;101485.87;;;20.35;55.87
79538;BME280;68989;52.032;5.152;2023-08-07T04:42:51;101486.21;;;20.36;55.97
79538;BME280;68989;52.032;5.152;2023-08-07T04:45:19;101492.94;;;20.36;55.96
79538;BME280;68989;52.032;5.152;2023-08-07T04:47:46;101492.64;;;20.36;56.03
79538;BME280;68989;52.032;5.152;2023-08-07T04:50:12;101497.14;;;20.37;56.11
79538;BME280;68989;52.032;5.152;2023-08-07T04:52:39;101493.64;;;20.38;56.08
79538;BME280;68989;52.032;5.152;2023-08-07T04:55:06;101496.53;;;20.38;56.27
79538;BME280;68989;52.032;5.152;2023-08-07T04:57:34;101494.80;;;20.38;56.19
79538;BME280;68989;52.032;5.152;2023-08-07T05:00:00;101499.92;;;20.40;56.25
79538;BME280;68989;52.032;5.152;2023-08-07T05:02:27;101502.70;;;20.41;56.21
79538;BME280;68989;52.032;5.152;2023-08-07T05:04:54;101504.46;;;20.40;56.27
79538;BME280;68989;52.032;5.152;2023-08-07T05:07:21;101503.03;;;20.40;56.30
79538;BME280;68989;52.032;5.152;2023-08-07T05:09:48;101505.14;;;20.41;56.19
79538;BME280;68989;52.032;5.152;2023-08-07T05:12:15;101503.02;;;20.41;56.32
79538;BME280;68989;52.032;5.152;2023-08-07T05:14:42;101503.57;;;20.43;56.18
79538;BME280;68989;52.032;5.152;2023-08-07T05:17:09;101504.78;;;20.43;56.15
79538;BME280;68989;52.032;5.152;2023-08-07T05:19:36;101515.60;;;20.44;56.21
79538;BME280;68989;52.032;5.152;2023-08-07T05:22:04;101520.14;;;20.45;56.18
79538;BME280;68989;52.032;5.152;2023-08-07T05:24:31;101522.17;;;20.46;56.19
79538;BME280;68989;52.032;5.152;2023-08-07T05:26:58;101522.91;;;20.47;56.18
79538;BME280;68989;52.032;5.152;2023-08-07T05:29:36;101523.73;;;20.48;56.17
79538;BME280;68989;52.032;5.152;2023-08-07T05:32:04;101524.96;;;20.50;56.16
79538;BME280;68989;52.032;5.152;2023-08-07T05:34:31;101527.24;;;20.51;56.21
79538;BME280;68989;52.032;5.152;2023-08-07T05:36:59;101529.58;;;20.52;56.10
79538;BME280;68989;52.032;5.152;2023-08-07T05:39:26;101526.21;;;20.54;56.10
79538;BME280;68989;52.032;5.152;2023-08-07T05:41:53;101529.56;;;20.56;56.11
79538;BME280;68989;52.032;5.152;2023-08-07T05:44:20;101533.06;;;20.57;56.01
79538;BME280;68989;52.032;5.152;2023-08-07T05:46:46;101538.57;;;20.59;55.98
79538;BME280;68989;52.032;5.152;2023-08-07T05:49:13;101544.19;;;20.61;55.90
79538;BME280;68989;52.032;5.152;2023-08-07T05:51:40;101543.62;;;20.62;55.98
79538;BME280;68989;52.032;5.152;2023-08-07T05:54:07;101549.44;;;20.64;55.91
79538;BME280;68989;52.032;5.152;2023-08-07T05:56:36;101551.21;;;20.66;55.90
79538;BME280;68989;52.032;5.152;2023-08-07T05:59:04;101554.56;;;20.67;56.22
79538;BME280;68989;52.032;5.152;2023-08-07T06:01:31;101552.50;;;20.69;56.10
79538;BME280;68989;52.032;5.152;2023-08-07T06:03:58;101553.69;;;20.73;55.86
79538;BME280;68989;52.032;5.152;2023-08-07T06:06:25;101559.25;;;20.75;55.87
79538;BME280;68989;52.032;5.152;2023-08-07T06:08:52;101567.07;;;20.78;55.73
79538;BME280;68989;52.032;5.152;2023-08-07T06:11:19;101573.10;;;20.81;55.74
79538;BME280;68989;52.032;5.152;2023-08-07T06:13:46;101585.78;;;20.79;55.81
79538;BME280;68989;52.032;5.152;2023-08-07T06:16:13;101581.36;;;20.80;55.83
79538;BME280;68989;52.032;5.152;2023-08-07T06:18:39;101575.80;;;20.82;55.76
79538;BME280;68989;52.032;5.152;2023-08-07T06:21:06;101582.31;;;20.85;55.68
79538;BME280;68989;52.032;5.152;2023-08-07T06:23:33;101580.87;;;20.89;55.66
79538;BME280;68989;52.032;5.152;2023-08-07T06:26:00;101583.19;;;20.94;55.69
79538;BME280;68989;52.032;5.152;2023-08-07T06:28:27;101584.81;;;20.99;55.64
79538;BME280;68989;52.032;5.152;2023-08-07T06:31:01;101586.84;;;21.03;55.65
79538;BME280;68989;52.032;5.152;2023-08-07T06:33:28;101590.46;;;21.06;55.59
79538;BME280;68989;52.032;5.152;2023-08-07T06:35:54;101595.38;;;21.10;55.57
79538;BME280;68989;52.032;5.152;2023-08-07T06:38:21;101596.58;;;21.14;55.51
79538;BME280;68989;52.032;5.152;2023-08-07T06:40:48;101594.09;;;21.18;55.70
79538;BME280;68989;52.032;5.152;2023-08-07T06:43:15;101594.57;;;21.25;55.83
79538;BME280;68989;52.032;5.152;2023-08-07T06:45:41;101594.37;;;21.35;55.58
79538;BME280;68989;52.032;5.152;2023-08-07T06:48:08;101594.15;;;21.47;55.53
79538;BME280;68989;52.032;5.152;2023-08-07T06:50:35;101591.11;;;21.62;55.08
79538;BME280;68989;52.032;5.152;2023-08-07T06:53:02;101594.93;;;21.77;54.74
79538;BME280;68989;52.032;5.152;2023-08-07T06:55:29;101602.65;;;21.91;54.32
79538;BME280;68989;52.032;5.152;2023-08-07T06:57:56;101602.22;;;22.05;54.18
79538;BME280;68989;52.032;5.152;2023-08-07T07:00:23;101608.56;;;22.15;54.00
79538;BME280;68989;52.032;5.152;2023-08-07T07:02:50;101613.11;;;22.24;53.85
79538;BME280;68989;52.032;5.152;2023-08-07T07:05:17;101621.50;;;22.31;53.81
79538;BME280;68989;52.032;5.152;2023-08-07T07:07:44;101614.59;;;22.37;53.52
79538;BME280;68989;52.032;5.152;2023-08-07T07:10:12;101618.55;;;22.40;52.87
79538;BME280;68989;52.032;5.152;2023-08-07T07:12:39;101617.99;;;22.38;52.74
79538;BME280;68989;52.032;5.152;2023-08-07T07:15:07;101621.12;;;22.36;52.67
79538;BME280;68989;52.032;5.152;2023-08-07T07:17:34;101620.40;;;22.32;52.48
79538;BME280;68989;52.032;5.152;2023-08-07T07:20:01;101622.79;;;22.28;52.52
79538;BME280;68989;52.032;5.152;2023-08-07T07:22:28;101628.10;;;22.26;52.63
79538;BME280;68989;52.032;5.152;2023-08-07T07:24:56;101625.65;;;22.25;52.38
79538;BME280;68989;52.032;5.152;2023-08-07T07:27:23;101634.27;;;22.22;52.49
79538;BME280;68989;52.032;5.152;2023-08-07T07:29:49;101639.83;;;22.22;52.49
79538;BME280;68989;52.032;5.152;2023-08-07T07:32:16;101642.63;;;22.26;52.60
79538;BME280;68989;52.032;5.152;2023-08-07T07:34:43;101639.06;;;22.35;52.58
79538;BME280;68989;52.032;5.152;2023-08-07T07:37:10;101640.79;;;22.46;52.46
79538;BME280;68989;52.032;5.152;2023-08-07T07:39:37;101643.20;;;22.61;52.12
79538;BME280;68989;52.032;5.152;2023-08-07T07:42:05;101646.19;;;22.77;51.90
79538;BME280;68989;52.032;5.152;2023-08-07T07:44:32;101639.35;;;22.92;51.76
79538;BME280;68989;52.032;5.152;2023-08-07T07:46:59;101642.74;;;23.06;51.38
79538;BME280;68989;52.032;5.152;2023-08-07T07:49:27;101650.32;;;23.19;51.08
79538;BME280;68989;52.032;5.152;2023-08-07T07:51:53;101656.81;;;23.27;50.58
79538;BME280;68989;52.032;5.152;2023-08-07T07:54:21;101657.91;;;23.33;50.33
79538;BME280;68989;52.032;5.152;2023-08-07T07:56:48;101664.85;;;23.32;49.63
79538;BME280;68989;52.032;5.152;2023-08-07T07:59:14;101666.63;;;23.38;49.50
79538;BME280;68989;52.032;5.152;2023-08-07T08:01:41;101672.06;;;23.48;49.25
79538;BME280;68989;52.032;5.152;2023-08-07T08:04:08;101668.73;;;23.60;48.76
79538;BME280;68989;52.032;5.152;2023-08-07T08:06:35;101671.11;;;23.74;48.33
79538;BME280;68989;52.032;5.152;2023-08-07T08:09:03;101671.54;;;23.87;47.77
79538;BME280;68989;52.032;5.152;2023-08-07T08:11:30;101683.71;;;23.99;47.15
79538;BME280;68989;52.032;5.152;2023-08-07T08:13:56;101682.88;;;24.10;46.76
79538;BME280;68989;52.032;5.152;2023-08-07T08:16:23;101685.65;;;24.19;45.96
79538;BME280;68989;52.032;5.152;2023-08-07T08:18:50;101679.93;;;24.30;45.60
79538;BME280;68989;52.032;5.152;2023-08-07T08:21:17;101685.14;;;24.43;45.28
79538;BME280;68989;52.032;5.152;2023-08-07T08:23:44;101679.25;;;24.56;44.95
79538;BME280;68989;52.032;5.152;2023-08-07T08:26:11;101682.15;;;24.72;44.67
79538;BME280;68989;52.032;5.152;2023-08-07T08:28:38;101691.19;;;24.87;44.50
79538;BME280;68989;52.032;5.152;2023-08-07T08:31:06;101693.09;;;25.04;44.37
79538;BME280;68989;52.032;5.152;2023-08-07T08:33:33;101700.08;;;25.19;44.03
79538;BME280;68989;52.032;5.152;2023-08-07T08:36:00;101695.85;;;25.32;43.70
79538;BME280;68989;52.032;5.152;2023-08-07T08:38:28;101696.38;;;25.42;43.50
79538;BME280;68989;52.032;5.152;2023-08-07T08:40:54;101694.66;;;25.45;43.02
79538;BME280;68989;52.032;5.152;2023-08-07T08:43:22;101690.37;;;25.45;42.78
79538;BME280;68989;52.032;5.152;2023-08-07T08:45:51;101691.00;;;25.41;42.51
79538;BME280;68989;52.032;5.152;2023-08-07T08:48:19;101694.58;;;25.39;42.69
79538;BME280;68989;52.032;5.152;2023-08-07T08:50:46;101693.11;;;25.39;42.71
79538;BME280;68989;52.032;5.152;2023-08-07T08:53:14;101699.89;;;25.41;42.47
79538;BME280;68989;52.032;5.152;2023-08-07T08:55:42;101698.11;;;25.44;42.46
79538;BME280;68989;52.032;5.152;2023-08-07T08:58:09;101695.27;;;25.49;42.57
79538;BME280;68989;52.032;5.152;2023-08-07T09:00:37;101719.47;;;25.52;41.85
79538;BME280;68989;52.032;5.152;2023-08-07T09:03:04;101715.96;;;25.49;41.69
79538;BME280;68989;52.032;5.152;2023-08-07T09:05:32;101717.77;;;25.46;42.02
79538;BME280;68989;52.032;5.152;2023-08-07T09:08:00;101718.44;;;25.42;42.32
79538;BME280;68989;52.032;5.152;2023-08-07T09:10:28;101720.45;;;25.36;42.52
79538;BME280;68989;52.032;5.152;2023-08-07T09:13:00;101727.39;;;25.31;42.68
79538;BME280;68989;52.032;5.152;2023-08-07T09:15:27;101743.54;;;25.22;42.77
79538;BME280;68989;52.032;5.152;2023-08-07T09:17:56;101752.96;;;25.11;42.94
79538;BME280;68989;52.032;5.152;2023-08-07T09:20:25;101750.38;;;24.95;43.38
79538;BME280;68989;52.032;5.152;2023-08-07T09:22:52;101748.66;;;24.78;43.78
79538;BME280;68989;52.032;5.152;2023-08-07T09:25:27;101758.28;;;24.64;44.20
79538;BME280;68989;52.032;5.152;2023-08-07T09:27:55;101763.41;;;24.53;44.46
79538;BME280;68989;52.032;5.152;2023-08-07T09:30:26;101757.33;;;24.44;44.67
79538;BME280;68989;52.032;5.152;2023-08-07T09:32:53;101753.96;;;24.41;44.91
79538;BME280;68989;52.032;5.152;2023-08-07T09:35:21;101749.05;;;24.36;45.12
79538;BME280;68989;52.032;5.152;2023-08-07T09:37:48;101756.17;;;24.35;45.31
79538;BME280;68989;52.032;5.152;2023-08-07T09:40:15;101752.77;;;24.39;45.30
79538;BME280;68989;52.032;5.152;2023-08-07T09:42:43;101763.89;;;24.46;45.24
79538;BME280;68989;52.032;5.152;2023-08-07T09:45:20;101758.68;;;24.55;45.34
79538;BME280;68989;52.032;5.152;2023-08-07T09:47:47;101754.39;;;24.73;45.34
79538;BME280;68989;52.032;5.152;2023-08-07T09:50:16;101747.17;;;24.94;45.23
79538;BME280;68989;52.032;5.152;2023-08-07T09:52:46;101750.01;;;25.17;44.72
79538;BME280;68989;52.032;5.152;2023-08-07T09:55:13;101734.99;;;25.39;43.83
79538;BME280;68989;52.032;5.152;2023-08-07T09:57:42;101748.05;;;25.54;43.28
79538;BME280;68989;52.032;5.152;2023-08-07T10:00:11;101755.20;;;25.65;42.03
79538;BME280;68989;52.032;5.152;2023-08-07T10:02:39;101756.73;;;25.69;40.98
79538;BME280;68989;52.032;5.152;2023-08-07T10:05:07;101755.95;;;25.72;40.69
79538;BME280;68989;52.032;5.152;2023-08-07T10:07:35;101757.72;;;25.72;41.16
79538;BME280;68989;52.032;5.152;2023-08-07T10:10:03;101765.45;;;25.70;40.84
79538;BME280;68989;52.032;5.152;2023-08-07T10:12:31;101757.59;;;25.67;41.00
79538;BME280;68989;52.032;5.152;2023-08-07T10:14:59;101768.64;;;25.62;41.05
79538;BME280;68989;52.032;5.152;2023-08-07T10:17:27;101775.97;;;25.57;41.42
79538;BME280;68989;52.032;5.152;2023-08-07T10:19:55;101781.30;;;25.52;41.58
79538;BME280;68989;52.032;5.152;2023-08-07T10:22:25;101780.79;;;25.45;41.26
79538;BME280;68989;52.032;5.152;2023-08-07T10:24:53;101784.28;;;25.39;42.11
79538;BME280;68989;52.032;5.152;2023-08-07T10:27:24;101787.46;;;25.34;42.02
79538;BME280;68989;52.032;5.152;2023-08-07T10:29:53;101786.64;;;25.28;41.64
79538;BME280;68989;52.032;5.152;2023-08-07T10:32:23;101789.38;;;25.26;42.14
79538;BME280;68989;52.032;5.152;2023-08-07T10:34:50;101780.63;;;25.27;41.88
79538;BME280;68989;52.032;5.152;2023-08-07T10:37:32;101784.14;;;25.31;41.99
79538;BME280;68989;52.032;5.152;2023-08-07T10:40:05;101790.61;;;25.41;42.44
79538;BME280;68989;52.032;5.152;2023-08-07T10:42:51;101794.37;;;25.53;42.12
79538;BME280;68989;52.032;5.152;2023-08-07T10:45:18;101798.01;;;25.67;41.92
79538;BME280;68989;52.032;5.152;2023-08-07T10:47:57;101794.34;;;25.78;41.65
79538;BME280;68989;52.032;5.152;2023-08-07T10:50:28;101799.47;;;25.88;41.64
79538;BME280;68989;52.032;5.152;2023-08-07T10:52:56;101799.88;;;25.97;41.25
79538;BME280;68989;52.032;5.152;2023-08-07T10:55:23;101799.43;;;26.03;40.86
79538;BME280;68989;52.032;5.152;2023-08-07T10:57:50;101801.15;;;26.06;40.63
79538;BME280;68989;52.032;5.152;2023-08-07T11:00:18;101800.65;;;26.10;40.81
79538;BME280;68989;52.032;5.152;2023-08-07T11:02:48;101799.19;;;26.16;41.24
79538;BME280;68989;52.032;5.152;2023-08-07T11:05:15;101800.01;;;26.23;41.15
79538;BME280;68989;52.032;5.152;2023-08-07T11:07:42;101802.42;;;26.32;40.99
79538;BME280;68989;52.032;5.152;2023-08-07T11:10:13;101809.92;;;26.42;40.50
79538;BME280;68989;52.032;5.152;2023-08-07T11:12:40;101802.56;;;26.53;39.92
79538;BME280;68989;52.032;5.152;2023-08-07T11:15:12;101803.83;;;26.64;39.62
79538;BME280;68989;52.032;5.152;2023-08-07T11:17:39;101803.23;;;26.76;39.79
79538;BME280;68989;52.032;5.152;2023-08-07T11:20:07;101799.73;;;26.91;39.73
79538;BME280;68989;52.032;5.152;2023-08-07T11:22:35;101801.11;;;27.04;38.99
79538;BME280;68989;52.032;5.152;2023-08-07T11:25:05;101798.34;;;27.16;38.32
79538;BME280;68989;52.032;5.152;2023-08-07T11:27:32;101799.15;;;27.31;38.45
79538;BME280;68989;52.032;5.152;2023-08-07T11:30:00;101789.22;;;27.49;38.39
79538;BME280;68989;52.032;5.152;2023-08-07T11:32:27;101799.84;;;27.73;38.33
79538;BME280;68989;52.032;5.152;2023-08-07T11:34:54;101797.11;;;28.00;37.79
79538;BME280;68989;52.032;5.152;2023-08-07T11:37:21;101792.26;;;28.28;37.11
79538;BME280;68989;52.032;5.152;2023-08-07T11:39:48;101798.67;;;28.52;36.25
79538;BME280;68989;52.032;5.152;2023-08-07T11:42:15;101802.45;;;28.63;35.95
79538;BME280;68989;52.032;5.152;2023-08-07T11:44:42;101811.10;;;28.67;35.65
79538;BME280;68989;52.032;5.152;2023-08-07T11:47:09;101805.69;;;28.64;35.46
79538;BME280;68989;52.032;5.152;2023-08-07T11:49:36;101804.81;;;28.59;34.97
79538;BME280;68989;52.032;5.152;2023-08-07T11:52:04;101804.82;;;28.56;34.72
79538;BME280;68989;52.032;5.152;2023-08-07T11:54:32;101807.33;;;28.57;35.18
79538;BME280;68989;52.032;5.152;2023-08-07T11:56:58;101817.31;;;28.60;35.52
79538;BME280;68989;52.032;5.152;2023-08-07T11:59:26;101808.04;;;28.62;34.12
79538;BME280;68989;52.032;5.152;2023-08-07T12:01:53;101805.58;;;28.63;34.04
79538;BME280;68989;52.032;5.152;2023-08-07T12:04:20;101809.10;;;28.69;34.31
79538;BME280;68989;52.032;5.152;2023-08-07T12:06:56;101812.23;;;28.81;33.81
79538;BME280;68989;52.032;5.152;2023-08-07T12:09:24;101798.85;;;29.00;33.50
79538;BME280;68989;52.032;5.152;2023-08-07T12:11:56;101800.55;;;29.20;33.79
79538;BME280;68989;52.032;5.152;2023-08-07T12:14:23;101806.60;;;29.37;32.97
79538;BME280;68989;52.032;5.152;2023-08-07T12:16:55;101800.48;;;29.57;32.53
79538;BME280;68989;52.032;5.152;2023-08-07T12:19:22;101798.47;;;29.79;32.85
79538;BME280;68989;52.032;5.152;2023-08-07T12:21:49;101802.64;;;29.99;32.56
79538;BME280;68989;52.032;5.152;2023-08-07T12:24:17;101800.78;;;30.14;32.21
79538;BME280;68989;52.032;5.152;2023-08-07T12:26:44;101799.17;;;30.25;32.03
79538;BME280;68989;52.032;5.152;2023-08-07T12:29:11;101804.05;;;30.34;31.97
79538;BME280;68989;52.032;5.152;2023-08-07T12:31:38;101806.25;;;30.41;31.26
79538;BME280;68989;52.032;5.152;2023-08-07T12:34:04;101802.58;;;30.44;30.64
79538;BME280;68989;52.032;5.152;2023-08-07T12:36:32;101806.04;;;30.41;30.60
79538;BME280;68989;52.032;5.152;2023-08-07T12:38:59;101807.95;;;30.31;30.44
79538;BME280;68989;52.032;5.152;2023-08-07T12:41:26;101802.35;;;30.20;30.79
79538;BME280;68989;52.032;5.152;2023-08-07T12:43:53;101808.68;;;30.17;31.37
79538;BME280;68989;52.032;5.152;2023-08-07T12:46:20;101803.22;;;30.22;31.81
79538;BME280;68989;52.032;5.152;2023-08-07T12:48:47;101802.48;;;30.33;31.33
79538;BME280;68989;52.032;5.152;2023-08-07T12:51:13;101798.71;;;30.49;31.17
79538;BME280;68989;52.032;5.152;2023-08-07T12:53:40;101795.61;;;30.66;30.02
79538;BME280;68989;52.032;5.152;2023-08-07T12:56:08;101801.03;;;30.79;29.15